createdAt,value
2023-02-18T00:01:44.405Z,8.70
2023-02-18T00:04:33.094Z,9.21
2023-02-18T00:07:21.038Z,9.38
2023-02-18T00:10:14.822Z,8.35
2023-02-18T00:13:02.599Z,8.20
2023-02-18T00:15:50.541Z,9.01
2023-02-18T00:18:40.063Z,9.25
2023-02-18T00:21:28.630Z,8.41
2023-02-18T00:24:17.094Z,7.84
2023-02-18T00:27:04.800Z,8.49
2023-02-18T00:29:52.522Z,9.01
2023-02-18T00:32:40.215Z,8.64
2023-02-18T00:35:28.314Z,7.87
2023-02-18T00:38:17.131Z,7.93
2023-02-18T00:41:06.830Z,8.76
2023-02-18T00:43:55.673Z,8.60
2023-02-18T00:46:43.951Z,7.87
2023-02-18T00:49:31.711Z,7.42
2023-02-18T00:52:19.439Z,8.25
2023-02-18T00:55:07.294Z,8.73
2023-02-18T00:57:55.103Z,8.08
2023-02-18T01:00:43.907Z,7.50
2023-02-18T01:03:33.414Z,7.29
2023-02-18T01:06:22.457Z,8.22
2023-02-18T01:09:10.946Z,8.58
2023-02-18T01:11:58.942Z,7.89
2023-02-18T01:14:46.791Z,7.34
2023-02-18T01:17:34.597Z,7.84
2023-02-18T01:20:24.654Z,8.31
2023-02-18T01:23:13.895Z,7.73
2023-02-18T01:26:01.681Z,7.21
2023-02-18T01:28:50.761Z,7.06
2023-02-18T01:31:38.528Z,7.98
2023-02-18T01:34:26.666Z,8.08
2023-02-18T01:37:14.793Z,7.49
2023-02-18T01:40:02.738Z,7.05
2023-02-18T01:42:50.912Z,6.74
2023-02-18T01:46:03.343Z,7.32
2023-02-18T01:49:01.273Z,8.09
2023-02-18T01:52:04.089Z,7.57
2023-02-18T01:54:57.603Z,7.04
2023-02-18T01:57:47.980Z,6.69
2023-02-18T02:00:37.105Z,7.14
2023-02-18T02:03:24.890Z,8.02
2023-02-18T02:06:20.598Z,7.74
2023-02-18T02:09:14.899Z,7.12
2023-02-18T02:12:50.537Z,6.72
2023-02-18T02:15:54.139Z,6.76
2023-02-18T02:19:36.489Z,7.67
2023-02-18T02:22:45.839Z,7.35
2023-02-18T02:25:42.792Z,6.83
2023-02-18T02:29:24.456Z,6.51
2023-02-18T02:32:33.215Z,6.46
2023-02-18T02:35:29.715Z,7.34
2023-02-18T02:38:34.852Z,7.68
2023-02-18T02:41:36.158Z,7.02
2023-02-18T02:45:02.895Z,6.60
2023-02-18T02:48:15.557Z,6.31
2023-02-18T02:51:18.373Z,6.87
2023-02-18T02:54:22.288Z,7.68
2023-02-18T02:57:30.549Z,7.15
2023-02-18T03:01:06.900Z,6.62
2023-02-18T03:04:24.840Z,6.29
2023-02-18T03:07:49.787Z,6.15
2023-02-18T03:10:49.954Z,7.19
2023-02-18T03:14:10.581Z,7.60
2023-02-18T03:17:30.882Z,6.94
2023-02-18T03:20:36.253Z,6.47
2023-02-18T03:23:54.614Z,6.19
2023-02-18T03:26:50.880Z,6.61
2023-02-18T03:29:41.109Z,7.64
2023-02-18T03:32:31.816Z,7.22
2023-02-18T03:35:20.431Z,6.66
2023-02-18T03:38:19.696Z,6.32
2023-02-18T03:41:07.842Z,6.08
2023-02-18T03:44:02.629Z,6.60
2023-02-18T03:46:51.049Z,7.57
2023-02-18T03:49:40.035Z,7.23
2023-02-18T03:52:28.162Z,6.67
2023-02-18T03:55:16.174Z,6.32
2023-02-18T03:58:04.167Z,6.08
2023-02-18T04:00:52.065Z,5.99
2023-02-18T04:03:40.420Z,6.94
2023-02-18T04:06:28.976Z,7.49
2023-02-18T04:09:16.959Z,6.91
2023-02-18T04:12:05.203Z,6.42
2023-02-18T04:14:52.853Z,6.12
2023-02-18T04:17:41.137Z,6.00
2023-02-18T04:20:29.930Z,6.87
2023-02-18T04:23:17.865Z,7.27
2023-02-18T04:26:05.573Z,6.76
2023-02-18T04:28:53.787Z,6.30
2023-02-18T04:31:41.757Z,6.02
2023-02-18T04:34:29.775Z,6.48
2023-02-18T04:37:17.432Z,7.30
2023-02-18T04:40:06.324Z,6.89
2023-02-18T04:42:53.974Z,6.40
2023-02-18T04:45:41.987Z,6.05
2023-02-18T04:48:30.022Z,6.04
2023-02-18T04:51:17.962Z,7.12
2023-02-18T04:54:06.062Z,7.57
2023-02-18T04:56:54.539Z,6.88
2023-02-18T04:59:42.797Z,6.35
2023-02-18T05:02:30.501Z,5.97
2023-02-18T05:05:18.361Z,6.07
2023-02-18T05:08:06.294Z,7.08
2023-02-18T05:10:54.068Z,7.18
2023-02-18T05:13:41.813Z,6.55
2023-02-18T05:16:30.563Z,6.08
2023-02-18T05:19:18.755Z,5.94
2023-02-18T05:22:06.489Z,6.88
2023-02-18T05:24:54.424Z,7.17
2023-02-18T05:27:42.337Z,6.50
2023-02-18T05:30:30.485Z,6.01
2023-02-18T05:33:18.332Z,5.98
2023-02-18T05:36:07.160Z,6.81
2023-02-18T05:38:55.212Z,7.07
2023-02-18T05:41:43.180Z,6.43
2023-02-18T05:44:31.151Z,5.89
2023-02-18T05:47:19.110Z,5.87
2023-02-18T05:50:08.569Z,6.76
2023-02-18T05:52:56.390Z,6.90
2023-02-18T05:55:44.104Z,6.25
2023-02-18T05:58:32.076Z,5.71
2023-02-18T06:01:20.158Z,6.13
2023-02-18T06:04:08.014Z,6.90
2023-02-18T06:06:55.997Z,6.64
2023-02-18T06:09:43.945Z,5.95
2023-02-18T06:12:31.670Z,5.60
2023-02-18T06:15:19.549Z,6.27
2023-02-18T06:18:07.547Z,6.81
2023-02-18T06:20:55.725Z,6.45
2023-02-18T06:23:43.754Z,5.85
2023-02-18T06:26:32.236Z,5.75
2023-02-18T06:29:20.404Z,6.62
2023-02-18T06:32:08.277Z,7.09
2023-02-18T06:34:56.103Z,6.50
2023-02-18T06:37:44.996Z,5.97
2023-02-18T06:40:33.144Z,5.94
2023-02-18T06:43:21.897Z,6.86
2023-02-18T06:46:10.046Z,7.39
2023-02-18T06:48:58.688Z,6.81
2023-02-18T06:51:46.586Z,6.31
2023-02-18T06:54:34.909Z,6.03
2023-02-18T06:57:22.896Z,6.76
2023-02-18T07:00:11.648Z,7.61
2023-02-18T07:02:59.650Z,7.17
2023-02-18T07:05:47.773Z,6.61
2023-02-18T07:08:37.657Z,6.28
2023-02-18T07:11:25.555Z,6.11
2023-02-18T07:14:13.401Z,6.84
2023-02-18T07:17:00.974Z,7.67
2023-02-18T07:19:48.885Z,7.34
2023-02-18T07:22:36.437Z,6.95
2023-02-18T07:25:24.956Z,6.67
2023-02-18T07:28:12.795Z,6.41
2023-02-18T07:31:01.497Z,6.31
2023-02-18T07:33:49.495Z,6.24
2023-02-18T07:36:37.559Z,6.41
2023-02-18T07:39:25.628Z,7.53
2023-02-18T07:42:14.320Z,7.80
2023-02-18T07:45:02.214Z,7.99
2023-02-18T07:47:50.318Z,8.72
2023-02-18T07:50:43.716Z,9.56
2023-02-18T07:53:31.686Z,10.17
2023-02-18T07:56:19.729Z,10.55
2023-02-18T07:59:07.873Z,11.11
2023-02-18T08:01:55.880Z,11.66
2023-02-18T08:04:44.648Z,11.92
2023-02-18T08:07:40.817Z,11.98
2023-02-18T08:10:28.586Z,12.21
2023-02-18T08:13:17.277Z,12.33
2023-02-18T08:16:05.369Z,12.48
2023-02-18T08:18:54.779Z,12.60
2023-02-18T08:21:42.335Z,12.95
2023-02-18T08:24:30.294Z,13.12
2023-02-18T08:27:18.022Z,13.24
2023-02-18T08:30:07.217Z,13.64
2023-02-18T08:32:55.332Z,14.09
2023-02-18T08:35:44.073Z,14.80
2023-02-18T08:38:32.171Z,14.99
2023-02-18T08:41:20.934Z,14.53
2023-02-18T08:44:08.749Z,14.00
2023-02-18T08:46:56.816Z,13.39
2023-02-18T08:49:45.062Z,13.23
2023-02-18T08:52:32.886Z,13.02
2023-02-18T08:55:21.520Z,12.72
2023-02-18T08:58:10.713Z,12.64
2023-02-18T09:01:02.841Z,12.01
2023-02-18T09:03:51.045Z,11.45
2023-02-18T09:06:39.610Z,11.13
2023-02-18T09:09:27.322Z,10.75
2023-02-18T09:12:15.167Z,10.70
2023-02-18T09:15:04.945Z,10.73
2023-02-18T09:17:52.621Z,10.73
2023-02-18T09:20:40.751Z,10.51
2023-02-18T09:23:31.805Z,10.11
2023-02-18T09:26:23.229Z,9.83
2023-02-18T09:29:11.354Z,9.85
2023-02-18T09:32:03.533Z,9.84
2023-02-18T09:34:51.222Z,9.99
2023-02-18T09:37:40.063Z,10.47
2023-02-18T09:40:35.722Z,10.70
2023-02-18T09:43:32.226Z,10.64
2023-02-18T09:46:34.572Z,10.39
2023-02-18T09:49:27.874Z,10.49
2023-02-18T09:52:31.017Z,10.51
2023-02-18T09:55:28.605Z,10.88
2023-02-18T09:58:26.781Z,11.94
2023-02-18T10:01:52.319Z,12.22
2023-02-18T10:04:52.269Z,11.66
2023-02-18T10:07:41.281Z,11.04
2023-02-18T10:10:48.266Z,10.53
2023-02-18T10:13:36.248Z,10.11
2023-02-18T10:16:25.923Z,9.64
2023-02-18T10:19:36.560Z,9.16
2023-02-18T10:22:27.990Z,8.66
2023-02-18T10:25:23.252Z,8.32
2023-02-18T10:28:13.207Z,8.06
2023-02-18T10:31:13.790Z,7.90
2023-02-18T10:34:35.536Z,8.04
2023-02-18T10:38:06.051Z,8.30
2023-02-18T10:41:13.872Z,8.45
2023-02-18T10:44:04.650Z,8.53
2023-02-18T10:47:39.921Z,8.65
2023-02-18T10:50:39.993Z,9.21
2023-02-18T10:53:40.774Z,9.29
2023-02-18T10:56:48.793Z,9.08
2023-02-18T10:59:36.370Z,9.01
2023-02-18T11:02:30.881Z,9.78
2023-02-18T11:05:20.790Z,10.64
2023-02-18T11:08:14.927Z,10.92
2023-02-18T11:11:17.012Z,10.82
2023-02-18T11:14:13.654Z,10.75
2023-02-18T11:17:31.193Z,11.46
2023-02-18T11:20:37.942Z,11.82
2023-02-18T11:23:26.323Z,12.14
2023-02-18T11:26:16.441Z,12.60
2023-02-18T11:29:29.542Z,12.73
2023-02-18T11:32:18.348Z,12.55
2023-02-18T11:35:06.540Z,12.33
2023-02-18T11:37:56.847Z,11.97
2023-02-18T11:40:55.307Z,11.60
2023-02-18T11:43:48.936Z,11.09
2023-02-18T11:46:36.847Z,11.56
2023-02-18T11:49:25.936Z,12.78
2023-02-18T11:52:38.148Z,13.70
2023-02-18T11:55:33.475Z,14.39
2023-02-18T11:58:21.423Z,14.75
2023-02-18T12:01:33.336Z,14.74
2023-02-18T12:04:29.945Z,14.65
2023-02-18T12:07:45.954Z,14.60
2023-02-18T12:10:51.872Z,14.35
2023-02-18T12:13:56.994Z,13.87
2023-02-18T12:17:31.734Z,13.95
2023-02-18T12:20:51.191Z,14.19
2023-02-18T12:24:04.430Z,14.33
2023-02-18T12:27:23.086Z,13.75
2023-02-18T12:31:01.089Z,13.23
2023-02-18T12:34:25.453Z,12.28
2023-02-18T12:38:02.333Z,11.28
2023-02-18T12:41:11.759Z,10.45
2023-02-18T12:44:33.170Z,9.93
2023-02-18T12:48:00.511Z,9.48
2023-02-18T12:51:13.966Z,9.14
2023-02-18T12:54:42.016Z,8.75
2023-02-18T12:57:43.602Z,8.45
2023-02-18T13:00:40.864Z,8.21
2023-02-18T13:03:58.431Z,8.07
2023-02-18T13:07:34.200Z,7.97
2023-02-18T13:10:46.734Z,7.74
2023-02-18T13:14:10.308Z,7.62
2023-02-18T13:17:01.656Z,7.47
2023-02-18T13:20:26.467Z,7.36
2023-02-18T13:23:26.208Z,7.31
2023-02-18T13:26:18.523Z,7.27
2023-02-18T13:29:09.476Z,7.16
2023-02-18T13:32:15.187Z,7.16
2023-02-18T13:35:21.859Z,7.12
2023-02-18T13:38:53.817Z,7.09
2023-02-18T13:41:43.326Z,7.03
2023-02-18T13:44:31.616Z,6.95
2023-02-18T13:47:46.171Z,6.88
2023-02-18T13:50:43.028Z,6.77
2023-02-18T13:53:39.822Z,6.72
2023-02-18T13:56:43.355Z,6.68
2023-02-18T13:59:46.697Z,6.66
2023-02-18T14:02:37.163Z,6.64
2023-02-18T14:05:37.791Z,6.61
2023-02-18T14:08:37.127Z,6.56
2023-02-18T14:11:35.093Z,6.50
2023-02-18T14:14:26.755Z,6.38
2023-02-18T14:17:20.962Z,6.29
2023-02-18T14:20:09.311Z,6.21
2023-02-18T14:22:57.960Z,6.18
2023-02-18T14:26:19.409Z,6.05
2023-02-18T14:29:28.004Z,5.98
2023-02-18T14:32:19.537Z,5.96
2023-02-18T14:36:10.635Z,5.94
2023-02-18T14:39:13.927Z,5.91
2023-02-18T14:42:05.129Z,5.91
2023-02-18T14:45:10.364Z,5.88
2023-02-18T14:48:22.752Z,5.86
2023-02-18T14:51:15.359Z,5.83
2023-02-18T14:54:13.468Z,5.80
2023-02-18T14:57:09.836Z,5.76
2023-02-18T15:00:00.772Z,5.72
2023-02-18T15:02:55.887Z,5.68
2023-02-18T15:05:45.315Z,5.64
2023-02-18T15:08:40.315Z,5.66
2023-02-18T15:11:47.989Z,6.62
2023-02-18T15:14:42.567Z,7.42
2023-02-18T15:17:32.035Z,6.92
2023-02-18T15:20:19.857Z,6.45
2023-02-18T15:23:17.596Z,6.14
2023-02-18T15:26:07.423Z,5.91
2023-02-18T15:29:02.104Z,5.80
2023-02-18T15:31:50.960Z,6.68
2023-02-18T15:34:40.248Z,7.26
2023-02-18T15:37:30.647Z,6.78
2023-02-18T15:40:19.724Z,6.32
2023-02-18T15:43:08.358Z,5.98
2023-02-18T15:45:59.086Z,6.25
2023-02-18T15:48:51.457Z,7.33
2023-02-18T15:51:43.700Z,8.00
2023-02-18T15:54:32.622Z,7.39
2023-02-18T15:57:27.548Z,6.76
2023-02-18T16:00:26.047Z,6.27
2023-02-18T16:03:26.436Z,6.26
2023-02-18T16:06:22.527Z,7.30
2023-02-18T16:09:26.379Z,7.37
2023-02-18T16:12:31.132Z,6.63
2023-02-18T16:15:31.816Z,6.07
2023-02-18T16:18:35.468Z,5.74
2023-02-18T16:21:44.292Z,6.60
2023-02-18T16:24:41.224Z,7.56
2023-02-18T16:27:35.060Z,7.10
2023-02-18T16:30:32.862Z,6.37
2023-02-18T16:33:20.840Z,5.82
2023-02-18T16:36:15.427Z,5.87
2023-02-18T16:39:03.603Z,6.94
2023-02-18T16:41:51.525Z,7.33
2023-02-18T16:44:40.968Z,6.59
2023-02-18T16:47:28.704Z,5.95
2023-02-18T16:50:21.579Z,5.83
2023-02-18T16:53:13.279Z,6.91
2023-02-18T16:56:01.858Z,7.30
2023-02-18T16:58:50.985Z,6.66
2023-02-18T17:01:44.231Z,6.08
2023-02-18T17:04:32.006Z,5.73
2023-02-18T17:07:20.142Z,6.53
2023-02-18T17:10:08.187Z,7.47
2023-02-18T17:12:55.839Z,7.24
2023-02-18T17:15:46.402Z,6.47
2023-02-18T17:18:35.757Z,5.95
2023-02-18T17:21:26.094Z,5.95
2023-02-18T17:24:16.461Z,6.96
2023-02-18T17:27:04.493Z,7.91
2023-02-18T17:29:52.448Z,8.09
2023-02-18T17:32:41.817Z,7.10
2023-02-18T17:35:30.614Z,6.35
2023-02-18T17:38:20.164Z,6.07
2023-02-18T17:41:08.703Z,6.99
2023-02-18T17:43:56.481Z,7.91
2023-02-18T17:46:44.968Z,7.75
2023-02-18T17:49:33.083Z,6.85
2023-02-18T17:52:31.656Z,6.22
2023-02-18T17:55:26.799Z,6.53
2023-02-18T17:58:15.902Z,7.50
2023-02-18T18:01:04.055Z,7.46
2023-02-18T18:03:51.891Z,6.66
2023-02-18T18:06:39.933Z,6.02
2023-02-18T18:09:27.614Z,6.35
2023-02-18T18:12:17.139Z,7.24
2023-02-18T18:15:36.296Z,7.60
2023-02-18T18:18:24.712Z,6.74
2023-02-18T18:21:23.276Z,6.11
2023-02-18T18:24:13.108Z,6.61
2023-02-18T18:27:01.355Z,7.45
2023-02-18T18:29:49.615Z,7.27
2023-02-18T18:32:38.166Z,6.45
2023-02-18T18:35:28.567Z,6.23
2023-02-18T18:38:17.820Z,7.20
2023-02-18T18:41:05.818Z,7.45
2023-02-18T18:43:53.928Z,6.64
2023-02-18T18:46:41.950Z,5.96
2023-02-18T18:49:29.970Z,5.83
2023-02-18T18:52:19.040Z,6.80
2023-02-18T18:55:25.462Z,7.59
2023-02-18T18:58:13.171Z,7.17
2023-02-18T19:01:04.581Z,6.24
2023-02-18T19:03:53.074Z,6.14
2023-02-18T19:06:41.572Z,7.13
2023-02-18T19:09:29.677Z,7.62
2023-02-18T19:12:17.637Z,6.93
2023-02-18T19:15:05.980Z,6.15
2023-02-18T19:17:54.864Z,6.09
2023-02-18T19:20:43.910Z,6.98
2023-02-18T19:23:33.073Z,7.67
2023-02-18T19:26:23.306Z,7.49
2023-02-18T19:29:11.557Z,6.58
2023-02-18T19:31:59.702Z,5.97
2023-02-18T19:34:47.689Z,6.42
2023-02-18T19:37:37.518Z,7.33
2023-02-18T19:40:29.454Z,7.42
2023-02-18T19:43:17.597Z,6.65
2023-02-18T19:46:23.957Z,6.13
2023-02-18T19:49:12.261Z,6.86
2023-02-18T19:52:04.211Z,7.51
2023-02-18T19:54:52.409Z,7.59
2023-02-18T19:57:40.610Z,6.64
2023-02-18T20:00:28.537Z,6.05
2023-02-18T20:03:16.342Z,6.59
2023-02-18T20:06:05.064Z,7.39
2023-02-18T20:08:55.146Z,7.77
2023-02-18T20:11:43.215Z,7.03
2023-02-18T20:14:31.145Z,6.24
2023-02-18T20:17:19.884Z,6.55
2023-02-18T20:20:08.219Z,7.40
2023-02-18T20:22:55.993Z,7.85
2023-02-18T20:25:43.982Z,7.17
2023-02-18T20:28:31.775Z,6.29
2023-02-18T20:31:19.890Z,6.11
2023-02-18T20:34:08.483Z,7.03
2023-02-18T20:36:57.209Z,7.52
2023-02-18T20:39:44.941Z,7.71
2023-02-18T20:42:32.918Z,6.86
2023-02-18T20:45:21.051Z,5.99
2023-02-18T20:48:08.786Z,6.12
2023-02-18T20:50:58.150Z,6.86
2023-02-18T20:53:49.593Z,7.57
2023-02-18T20:56:38.542Z,7.30
2023-02-18T20:59:26.961Z,6.29
2023-02-18T21:02:16.784Z,5.94
2023-02-18T21:05:06.132Z,6.62
2023-02-18T21:07:54.030Z,7.18
2023-02-18T21:10:42.317Z,7.54
2023-02-18T21:13:30.084Z,6.97
2023-02-18T21:16:19.908Z,6.02
2023-02-18T21:19:13.770Z,5.97
2023-02-18T21:22:02.082Z,6.76
2023-02-18T21:24:51.708Z,7.38
2023-02-18T21:27:42.066Z,7.36
2023-02-18T21:30:33.374Z,6.36
2023-02-18T21:33:21.305Z,5.97
2023-02-18T21:36:09.636Z,6.70
2023-02-18T21:39:00.721Z,7.44
2023-02-18T21:41:48.528Z,8.10
2023-02-18T21:44:42.263Z,7.70
2023-02-18T21:47:31.487Z,6.48
2023-02-18T21:50:20.434Z,5.68
2023-02-18T21:53:08.132Z,6.28
2023-02-18T21:56:03.663Z,7.15
2023-02-18T21:58:53.997Z,7.18
2023-02-18T22:01:42.283Z,6.12
2023-02-18T22:04:33.541Z,5.81
2023-02-18T22:07:24.770Z,6.73
2023-02-18T22:10:13.035Z,7.47
2023-02-18T22:13:01.272Z,7.47
2023-02-18T22:15:57.128Z,6.38
2023-02-18T22:18:45.269Z,5.79
2023-02-18T22:21:34.076Z,6.71
2023-02-18T22:24:22.623Z,7.54
2023-02-18T22:27:11.026Z,7.65
2023-02-18T22:29:58.718Z,6.65
2023-02-18T22:32:46.731Z,5.93
2023-02-18T22:35:34.615Z,6.68
2023-02-18T22:38:23.691Z,7.49
2023-02-18T22:41:14.127Z,7.38
2023-02-18T22:44:14.668Z,6.33
2023-02-18T22:47:02.806Z,5.48
2023-02-18T22:49:50.844Z,5.33
2023-02-18T22:52:38.918Z,6.41
2023-02-18T22:55:27.180Z,7.25
2023-02-18T22:58:15.190Z,7.50
2023-02-18T23:01:04.198Z,6.53
2023-02-18T23:03:53.868Z,5.60
2023-02-18T23:06:45.449Z,5.74
2023-02-18T23:09:33.842Z,6.85
2023-02-18T23:12:23.245Z,7.61
2023-02-18T23:15:13.888Z,7.73
2023-02-18T23:18:04.052Z,6.78
2023-02-18T23:21:12.078Z,5.87
2023-02-18T23:23:59.831Z,6.25
2023-02-18T23:26:48.638Z,7.25
2023-02-18T23:29:36.985Z,7.71
2023-02-18T23:32:28.009Z,6.80
2023-02-18T23:35:16.304Z,5.87
2023-02-18T23:38:05.068Z,5.96
2023-02-18T23:40:53.355Z,6.94
2023-02-18T23:43:41.305Z,7.77
2023-02-18T23:46:29.200Z,7.81
2023-02-18T23:49:25.062Z,6.75
2023-02-18T23:52:14.297Z,5.80
2023-02-18T23:55:02.944Z,6.26
2023-02-18T23:57:51.042Z,7.18
